Aeroporto :
LOGIN :

Iscrizione | Disclaimer

   EN    FR    IT 

 










Sommario :    VFR   VFR Marginale   IFR   IFR Intensivo   IFR Molto Intensivo
Visibilità : 
Base nubi : 
>= 8 km
>= 3000ft
5 / 8 km
1000 / 3000 ft
1500m / 5 km
500 / 1000 ft
800 / 1500m
200 / 500 ft
< 800m
< 200 ft
Simboli :   Temporali  Nebbia  Neve Forte  Precipitazioni Forti  Vento > 20 kt
SIGMETs :   Varie  Temporali  Ghiacco  Turbolenza  Onda orograficha  Ceneri Vulcaniche






- Altitudine del aeroporto : 313 ft
- Codice IATA : LEH


LFOH - Le Havre Octeville

ULTIMO METAR :
  • 230230Z AUTO 09007KT 3300 BR BKN003 M01/M01 Q1032

METARs OBSOLETI :
  • 230200Z AUTO 11009KT 3800 BR NSC M01/M02 Q1032
  • 230130Z AUTO 10009KT 4000 BR NSC M01/M02 Q1032
  • 230100Z AUTO 10008KT 3900 BR NSC M01/M01 Q1033
  • 230030Z AUTO 10009KT 4000 BR FEW005 M00/M01 Q1033
  • 230000Z AUTO 11010KT 3900 BR FEW005 00/M01 Q1033

TAF TAF LFOH
Valido dal 22 a 12 ore il 23 a 12 ore UTC


221100Z 2212/2312 08007KT 6000 BKN016
PROB40
TEMPO 2219/2312 2000 BR OVC002
ATIS : +33 2 35 54 64 93



MetMap, La meteo Aeronautica in un colpo d'occhio ! - Copyright ORBIFLY Dicembre 2007 - Disclaimer

ORBIFLY MET'MAP TEAM :

Programmazione e sviluppo : Alexandra Zaïnal
Concezione : Baudouin d'Aumeries
Aiuto per la programmazione : Marc-Olivier Méhu
Supporto tecnico e logistico : Manuel Goepfert
Aiuto per la traduzione : Arnaldo La Scala

Contatto : metmap@orbifly.com




FONTI E CREDITI :

   NOAA